首页
METAR-TAF:

METAR-TAF

机场 :

阿德萊德機場

阿德莱德, 澳大利亚

纬度: 34-56S, 经度: 138-31E, 海拔: 6米

当前天气观测

该预报发布于11分钟前的00:00 UTC
风速13节,风向
温度 12°C
湿度 76%
气压 1015 hPa
能见度10公里或以上
少量云层高于1400英尺

METAR: YPAD 170000Z 01013KT 9999 FEW014 12/08 Q1015 NOSIG

时间: 09:41 (00:11 UTC)

预报

该预报发布于32分钟前的23:39 UTC
预报有效从17日的 00点(UTC)到 18日的 06点(UTC)
风速8节,风向
能见度10公里或以上
散云层高于4000英尺
从 17日的 0200点(UTC)
风速15节,风向西北
能见度10公里或以上
1500米以下无云,无积雨云
成为
从 17日的 11点(UTC)到 17日的 13点(UTC)
风速14节,风向西
能见度10公里或以上
多云层高于3000英尺
小阵雨
从 17日的 2100点(UTC)
风速18节,风向西转西南,有时为30节阵风
能見度: 5000
散云层高于3000英尺
多云层高于4000英尺
散云层高于2000英尺
散云层高于1500英尺
散云层高于2500英尺
小阵雨, 雨, 阵雨

TAF: YPAD 162339Z 1700/1806 36008KT 9999 SCT040 FM170200 31015KT CAVOK BECMG 1711/1713 27014KT 9999 -SHRA BKN030 FM172100 24018G30KT 9999 -SHRA SCT030 BKN040 INTER 1713/1716 3000 RA SCT020 INTER 1713/1721 5000 SHRA SCT015 SCT025

超过4000个机场的气象观测和天气预报(METAR&TAF报告)。

可查询的气象台以黄色和红色小点在地图上表示。

将鼠标移到小点上方,可查看气象台名称。

然后点击查看天气观测和预报。

如需切换地图:点击带黑十字的绿色按钮放大地图;点击带横线的绿色按钮缩小地图;或者点击绿色箭头查看邻近地区的地图。


METAR-TAF: